Latest Coastal Weather Observations for Cape Borda

IDT60701

Issued at 1:22 pm EDT Monday 5 December 2016 (issued every 10 minutes, with the page automatically refreshed every 10 minutes)

About coastal observations | Map of coastal stations | Coastal observations for TAS | Marine services | Other Formats
Station Details ID: 022823 Name: CAPE BORDA Lat: -35.75 Lon: 136.60 Height: 158.0 m
Data from the previous 72 hours. | See also: Recent months at Cape Borda
Date/Time
EDT
Temp
°C
Wind Pressure Rain since
9am
mm
Weather Cloud Vis
km
Sea
Height
m
Swell
Dir  Spd
kts
Gust
kts
hPa Trend Height
m
Period
s
Dir
05/01:00pm 18.5 S 11 17 1014.0 - 0.0 - - - - - - -
05/12:30pm 17.5 SSW 11 14 1014.5 - 0.0 - - - - - - -
05/12:00pm 17.4 S 10 24 1015.0 - 0.0 - - - - - - -
05/11:30am 17.5 S 11 18 1014.8 - 0.0 - - - - - - -
05/11:00am 17.4 S 12 17 1014.6 - 0.0 - - - - - - -
05/10:30am 15.8 SSW 13 19 1014.9 - 0.0 - - - - - - -
05/10:00am 16.0 SSW 14 19 1015.3 - 0.0 - - - - - - -
05/09:30am 15.4 SSW 15 20 1014.5 R 0.0 Fine Mostly clear 15 <0.5 4.3 6 S
05/09:00am 14.9 SSW 15 20 1014.3 - 0.0 - - - - - - -
05/08:30am 14.3 SSW 15 20 1013.5 - 0.0 - - - - - - -
05/08:00am 13.8 S 11 16 1013.7 - 0.0 - - - - - - -
05/07:30am 12.6 S 10 12 1013.6 - 0.0 - - - - - - -
05/07:00am 12.3 S 10 14 1013.3 - 0.0 - - - - - - -
05/06:30am 12.4 SSW 11 15 1013.0 - 0.0 - - - - - - -
05/06:00am 12.9 SSW 9 12 1013.2 - 0.0 - - - - - - -
05/05:30am 12.7 SSW 11 16 1012.6 - 0.0 - - - - - - -
05/05:00am 12.4 SSW 9 12 1012.4 - 0.0 - - - - - - -
05/04:30am 13.0 SSW 9 14 1012.4 - 0.0 - - - - - - -
05/04:00am 13.1 SSW 10 14 1012.0 - 0.0 - - - - - - -
05/03:30am 13.2 SSW 13 19 1011.2 - 0.0 - - - - - - -
05/03:00am 13.6 SSW 12 17 1010.8 - 0.0 - - - - - - -
05/02:30am 13.7 SSW 13 18 1010.8 - 0.0 - - - - - - -
05/02:00am 13.6 SSW 14 21 1010.6 - 0.0 - - - - - - -
05/01:30am 13.7 SW 15 22 1010.4 - 0.0 - - - - - - -
05/01:00am 13.9 SW 14 19 1010.7 - 0.0 - - - - - - -
05/12:30am 13.9 SSW 15 22 1010.0 - 0.0 - - - - - - -
05/12:00am 14.1 SW 17 24 1010.2 - 0.0 - - - - - - -
 
Date/Time
EDT
Temp
°C
Wind Pressure Rain since
9am
mm
Weather Cloud Vis
km
Sea
Height
m
Swell
Dir  Spd
kts
Gust
kts
hPa Trend Height
m
Period
s
Dir
04/11:30pm 14.2 SSW 15 21 1010.0 - 0.0 - - - - - - -
04/11:00pm 14.3 SW 17 25 1009.7 - 0.0 - - - - - - -
04/10:30pm 14.4 SSW 17 24 1009.0 - 0.0 - - - - - - -
04/10:00pm 14.7 SW 17 24 1008.4 - 0.0 - - - - - - -
04/09:30pm 14.9 SW 17 25 1007.7 - 0.0 - - - - - - -
04/09:13pm 15.0 SW 17 27 1007.6 - 0.0 - - - - - - -
04/09:00pm 15.3 SW 17 24 1007.0 - 0.0 - - - - - - -
04/08:30pm 16.0 SW 18 25 1006.5 - 0.0 - - - - - - -
04/08:01pm 16.3 SW 20 30 1005.6 - 0.0 - - - - - - -
04/08:00pm 16.3 SW 19 27 1005.6 - 0.0 - - - - - - -
04/07:30pm 17.2 SW 20 27 1005.1 - 0.0 - - - - - - -
04/07:00pm 18.8 SW 18 25 1004.2 - 0.0 - - - - - - -
04/06:30pm 20.0 WSW 16 21 1003.3 - 0.0 - - - - - - -
04/06:00pm 21.3 W 17 23 1003.0 - 0.0 - - - - - - -
04/05:45pm 22.1 W 15 25 1003.1 - 0.0 - - - - - - -
04/05:30pm 23.4 NW 14 21 1003.0 - 0.0 - - - - - - -
04/05:00pm 25.3 N 11 15 1002.4 - 0.0 - - - - - - -
04/04:30pm 26.1 N 11 16 1002.4 - 0.0 - - - - - - -
04/04:00pm 24.9 NNE 12 17 1002.5 - 0.0 - - - - - - -
04/03:30pm 25.6 NE 12 15 1002.3 F 0.0 Haze Partly cloudy 10 <0.5 - - SW
04/03:00pm 24.7 NE 12 15 1002.9 - 0.0 - - - - - - -
04/02:30pm 24.9 NE 11 14 1002.7 - 0.0 - - - - - - -
04/02:00pm 22.7 NE 11 15 1003.1 - 0.0 - - - - - - -
04/01:30pm 20.9 NE 12 18 1003.5 - 0.0 - - - - - - -
04/01:00pm 21.8 NE 10 13 1004.3 - 0.0 - - - - - - -
04/12:30pm 23.2 NNW 9 14 1004.3 - 0.0 - - - - - - -
04/12:00pm 21.4 NW 6 9 1005.2 - 0.0 - - - - - - -
04/11:30am 20.8 WNW 8 11 1005.7 - 0.0 - - - - - - -
04/11:00am 19.3 WSW 8 10 1007.0 - 0.0 - - - - - - -
04/10:30am 22.2 N 11 15 1006.1 - 0.0 - - - - - - -
04/10:00am 21.5 NE 14 21 1005.0 - 0.0 - - - - - - -
04/09:30am 21.8 NE 14 21 1004.9 F 0.0 Thunder Mostly cloudy 12 <0.1 4.0 9 SW
04/09:09am 23.5 NNE 15 25 1005.0 - 0.0 - - - - - - -
04/09:00am 22.6 NE 15 21 1005.0 - 0.0 - - - - - - -
04/08:30am 21.5 ENE 13 16 1005.5 - 0.0 - - - - - - -
04/08:00am 20.9 NE 13 19 1005.7 - 0.0 - - - - - - -
04/07:30am 20.2 ENE 13 18 1005.3 - 0.0 - - - - - - -
04/07:00am 18.8 ENE 15 19 1005.2 - 0.0 - - - - - - -
04/06:30am 19.2 ENE 14 19 1006.2 - 0.0 - - - - - - -
04/06:00am 19.6 ENE 14 21 1005.6 - 0.0 - - - - - - -
04/05:30am 18.1 ENE 15 20 1004.9 - 0.0 - - - - - - -
04/05:00am 17.7 ENE 15 20 1005.2 - 0.0 - - - - - - -
04/04:30am 17.6 ENE 13 17 1005.3 - 0.0 - - - - - - -
04/04:00am 18.3 ENE 14 17 1005.5 - 0.0 - - - - - - -
04/03:30am 17.4 ENE 14 17 1006.0 - 0.0 - - - - - - -
04/03:00am 17.7 ENE 13 17 1006.5 - 0.0 - - - - - - -
04/02:30am 18.3 NE 13 17 1007.2 - 0.0 - - - - - - -
04/02:00am 17.8 ENE 12 15 1007.5 - 0.0 - - - - - - -
04/01:30am 17.7 NE 12 14 1008.1 - 0.0 - - - - - - -
04/01:00am 18.0 NE 11 14 1008.3 - 0.0 - - - - - - -
04/12:30am 15.8 ENE 10 11 1008.3 - 0.0 - - - - - - -
04/12:00am 15.0 E 11 11 1008.8 - 0.0 - - - - - - -
 
Date/Time
EDT
Temp
°C
Wind Pressure Rain since
9am
mm
Weather Cloud Vis
km
Sea
Height
m
Swell
Dir  Spd
kts
Gust
kts
hPa Trend Height
m
Period
s
Dir
03/11:30pm 16.0 ENE 11 13 1009.7 - 0.0 - - - - - - -
03/10:30pm 14.2 E 9 11 1010.4 - 0.0 - - - - - - -
03/10:00pm 14.6 E 10 13 1010.4 - 0.0 - - - - - - -
03/09:30pm 15.4 ESE 11 13 1010.4 - 0.0 - - - - - - -
03/09:00pm 16.7 ESE 9 12 1011.3 - 0.0 - - - - - - -
03/08:30pm 18.8 ESE 7 9 1011.3 - 0.0 - - - - - - -
03/08:00pm 20.3 SE 7 9 1011.2 - 0.0 - - - - - - -
03/07:30pm 20.2 SE 7 10 1011.2 - 0.0 - - - - - - -
03/07:00pm 19.2 S 8 11 1011.2 - 0.0 - - - - - - -
03/06:30pm 19.5 SSW 9 12 1011.2 - 0.0 - - - - - - -
03/06:00pm 19.5 SW 7 10 1011.8 - 0.0 - - - - - - -
03/05:30pm 19.8 WSW 7 9 1011.9 - 0.0 - - - - - - -
03/05:00pm 19.4 W 6 8 1012.1 - 0.0 - - - - - - -
03/04:30pm 18.9 WNW 8 10 1012.4 - 0.0 - - - - - - -
03/04:00pm 18.9 NW 7 9 1012.1 - 0.0 - - - - - - -
03/03:30pm 19.6 W 7 9 1011.7 - 0.0 - - - - - - -
03/03:00pm 18.9 W 7 11 1012.7 - 0.0 - - - - - - -
03/02:30pm 19.1 W 7 10 1013.0 - 0.0 - - - - - - -
03/02:00pm 18.1 W 8 11 1013.5 - 0.0 - - - - - - -
03/01:30pm 18.3 NNW 7 9 1013.7 - 0.0 - - - - - - -
03/01:00pm 18.0 N 7 9 1013.7 - 0.0 - - - - - - -
03/12:30pm 18.0 N 8 11 1013.6 - 0.0 - - - - - - -
03/12:00pm 18.3 N 9 12 1013.7 - 0.0 - - - - - - -
03/11:30am 17.8 NE 10 14 1013.7 - 0.0 - - - - - - -
03/11:00am 17.4 NNE 9 12 1013.8 - 0.0 - - - - - - -
03/10:30am 16.7 NNE 8 11 1014.0 - 0.0 - - - - - - -
03/10:00am 17.1 E 8 11 1014.2 - 0.0 - - - - - - -
03/09:30am 15.9 NE 9 13 1014.3 F 0.0 Fine Partly cloudy 15 <0.1 5.5 10 SW
03/09:00am 14.9 E 11 14 1014.6 - 0.0 - - - - - - -
03/08:30am 13.5 ESE 9 15 1014.5 - 0.0 - - - - - - -
03/08:00am 11.9 ESE 8 12 1014.7 - 0.0 - - - - - - -
03/07:30am 10.1 ESE 8 9 1014.6 - 0.0 - - - - - - -
03/07:00am 8.6 ESE 10 11 1014.4 - 0.0 - - - - - - -
03/06:30am 7.9 SE 9 11 1013.9 - 0.0 - - - - - - -
03/06:00am 7.7 ESE 10 12 1013.8 - 0.0 - - - - - - -
03/05:30am 6.8 ESE 10 10 1013.6 - 0.0 - - - - - - -
03/05:00am 7.1 ESE 9 11 1013.7 - 0.0 - - - - - - -
03/04:30am 7.4 ESE 10 11 1013.9 - 0.0 - - - - - - -
03/04:00am 7.7 ESE 9 11 1013.9 - 0.0 - - - - - - -
03/03:30am 7.8 ESE 10 11 1013.8 - 0.0 - - - - - - -
03/03:00am 7.8 ESE 10 12 1014.4 - 0.0 - - - - - - -
03/02:30am 8.1 ESE 10 12 1014.5 - 0.0 - - - - - - -
03/02:00am 8.3 ESE 10 12 1014.6 - 0.0 - - - - - - -
03/01:30am 8.7 ESE 11 13 1014.8 - 0.0 - - - - - - -
03/01:00am 9.2 SE 10 13 1015.1 - 0.0 - - - - - - -
03/12:30am 9.6 SE 10 13 1015.0 - 0.0 - - - - - - -
03/12:00am 9.8 SE 11 14 1015.5 - 0.0 - - - - - - -
 
Date/Time
EDT
Temp
°C
Wind Pressure Rain since
9am
mm
Weather Cloud Vis
km
Sea
Height
m
Swell
Dir  Spd
kts
Gust
kts
hPa Trend Height
m
Period
s
Dir
02/11:30pm 9.9 SE 10 13 1015.7 - 0.0 - - - - - - -
02/11:00pm 10.5 SE 11 14 1015.9 - 0.0 - - - - - - -
02/10:30pm 10.6 SE 12 14 1015.9 - 0.0 - - - - - - -
02/10:00pm 10.7 SE 11 14 1015.6 - 0.0 - - - - - - -
02/09:30pm 11.2 SE 12 14 1015.5 - 0.0 - - - - - - -
02/09:00pm 11.8 SSE 11 14 1015.6 - 0.0 - - - - - - -
02/08:30pm 13.0 SSE 12 15 1015.4 - 0.0 - - - - - - -
02/08:00pm 14.4 S 13 17 1015.3 - 0.0 - - - - - - -
02/07:30pm 15.4 S 13 18 1015.1 - 0.0 - - - - - - -
02/07:00pm 15.7 S 15 19 1014.8 - 0.0 - - - - - - -
02/06:30pm 16.7 S 12 18 1014.4 - 0.0 - - - - - - -
02/06:00pm 16.7 S 14 19 1014.5 - 0.0 - - - - - - -
02/05:30pm 17.8 SSE 13 15 1014.8 - 0.0 - - - - - - -
02/05:00pm 17.3 S 13 19 1014.8 - 0.0 - - - - - - -
02/04:30pm 17.4 SSW 15 21 1014.6 - 0.0 - - - - - - -
02/04:00pm 17.0 SSW 18 24 1014.8 - 0.0 - - - - - - -
02/03:30pm 17.2 SSW 17 23 1014.6 R 0.0 Fine Mostly cloudy 15 1 3.3 7 SW
02/03:00pm 17.0 SSW 17 23 1014.9 - 0.0 - - - - - - -
02/02:30pm 16.9 SW 18 24 1015.0 - 0.0 - - - - - - -
02/02:00pm 16.9 SSW 17 23 1015.1 - 0.0 - - - - - - -

Other Formats:

Comma delimited format used in spreadsheet applications
http://www.bom.gov.au/fwo/IDT60701/IDT60701.95805.axf

JavaScript Object Notation format (JSON) in row-major order
http://www.bom.gov.au/fwo/IDT60701/IDT60701.95805.json